sensor_id;sensor_type;location;lat;lon;timestamp;temperature;humidity
65864;SHT30;52639;51.180;20.460;2023-06-19T00:04:04;10.03;84.05
65864;SHT30;52639;51.180;20.460;2023-06-19T00:08:08;9.98;84.16
65864;SHT30;52639;51.180;20.460;2023-06-19T00:12:13;9.89;84.53
65864;SHT30;52639;51.180;20.460;2023-06-19T00:16:17;9.70;84.69
65864;SHT30;52639;51.180;20.460;2023-06-19T00:20:23;9.61;84.88
65864;SHT30;52639;51.180;20.460;2023-06-19T00:24:28;9.57;85.03
65864;SHT30;52639;51.180;20.460;2023-06-19T00:28:32;9.54;84.99
65864;SHT30;52639;51.180;20.460;2023-06-19T00:32:36;9.61;84.77
65864;SHT30;52639;51.180;20.460;2023-06-19T00:36:50;9.63;84.77
65864;SHT30;52639;51.180;20.460;2023-06-19T00:40:58;9.42;84.99
65864;SHT30;52639;51.180;20.460;2023-06-19T00:45:03;9.33;85.16
65864;SHT30;52639;51.180;20.460;2023-06-19T00:49:08;9.27;85.14
65864;SHT30;52639;51.180;20.460;2023-06-19T00:53:15;9.25;85.34
65864;SHT30;52639;51.180;20.460;2023-06-19T00:57:21;9.20;85.45
65864;SHT30;52639;51.180;20.460;2023-06-19T01:01:25;9.18;85.42
65864;SHT30;52639;51.180;20.460;2023-06-19T01:05:30;9.14;85.32
65864;SHT30;52639;51.180;20.460;2023-06-19T01:09:42;9.23;84.98
65864;SHT30;52639;51.180;20.460;2023-06-19T01:13:52;9.20;84.90
65864;SHT30;52639;51.180;20.460;2023-06-19T01:18:00;9.15;85.13
65864;SHT30;52639;51.180;20.460;2023-06-19T01:22:08;9.05;85.36
65864;SHT30;52639;51.180;20.460;2023-06-19T01:26:12;8.91;85.64
65864;SHT30;52639;51.180;20.460;2023-06-19T01:30:17;8.88;85.98
65864;SHT30;52639;51.180;20.460;2023-06-19T01:34:21;8.88;85.85
65864;SHT30;52639;51.180;20.460;2023-06-19T01:38:29;8.75;85.87
65864;SHT30;52639;51.180;20.460;2023-06-19T01:42:36;8.75;86.32
65864;SHT30;52639;51.180;20.460;2023-06-19T01:46:41;8.74;86.36
65864;SHT30;52639;51.180;20.460;2023-06-19T01:50:46;8.65;86.31
65864;SHT30;52639;51.180;20.460;2023-06-19T01:54:52;8.58;86.21
65864;SHT30;52639;51.180;20.460;2023-06-19T01:58:57;8.67;85.98
65864;SHT30;52639;51.180;20.460;2023-06-19T02:03:01;8.71;85.77
65864;SHT30;52639;51.180;20.460;2023-06-19T02:07:06;8.72;85.76
65864;SHT30;52639;51.180;20.460;2023-06-19T02:11:12;8.72;85.54
65864;SHT30;52639;51.180;20.460;2023-06-19T02:15:16;8.68;85.62
65864;SHT30;52639;51.180;20.460;2023-06-19T02:19:21;8.62;85.78
65864;SHT30;52639;51.180;20.460;2023-06-19T02:23:25;8.61;85.68
65864;SHT30;52639;51.180;20.460;2023-06-19T02:27:31;8.67;85.61
65864;SHT30;52639;51.180;20.460;2023-06-19T02:31:35;8.68;85.60
65864;SHT30;52639;51.180;20.460;2023-06-19T02:35:40;8.65;85.69
65864;SHT30;52639;51.180;20.460;2023-06-19T02:39:46;8.60;85.79
65864;SHT30;52639;51.180;20.460;2023-06-19T02:43:53;8.69;85.55
65864;SHT30;52639;51.180;20.460;2023-06-19T02:47:57;8.74;85.67
65864;SHT30;52639;51.180;20.460;2023-06-19T02:52:02;8.81;85.61
65864;SHT30;52639;51.180;20.460;2023-06-19T02:56:06;9.02;85.43
65864;SHT30;52639;51.180;20.460;2023-06-19T03:00:14;9.18;85.18
65864;SHT30;52639;51.180;20.460;2023-06-19T03:04:18;9.30;85.17
65864;SHT30;52639;51.180;20.460;2023-06-19T03:08:23;9.51;84.79
65864;SHT30;52639;51.180;20.460;2023-06-19T03:12:27;9.70;84.60
65864;SHT30;52639;51.180;20.460;2023-06-19T03:16:33;9.86;84.32
65864;SHT30;52639;51.180;20.460;2023-06-19T03:20:38;10.01;84.28
65864;SHT30;52639;51.180;20.460;2023-06-19T03:24:42;10.20;84.13
65864;SHT30;52639;51.180;20.460;2023-06-19T03:28:46;10.37;84.02
65864;SHT30;52639;51.180;20.460;2023-06-19T03:32:52;10.59;83.75
65864;SHT30;52639;51.180;20.460;2023-06-19T03:36:56;10.86;83.43
65864;SHT30;52639;51.180;20.460;2023-06-19T03:41:01;11.09;83.20
65864;SHT30;52639;51.180;20.460;2023-06-19T03:45:08;11.27;83.20
65864;SHT30;52639;51.180;20.460;2023-06-19T03:49:14;11.47;83.08
65864;SHT30;52639;51.180;20.460;2023-06-19T03:53:21;11.75;82.93
65864;SHT30;52639;51.180;20.460;2023-06-19T03:57:25;12.01;82.68
65864;SHT30;52639;51.180;20.460;2023-06-19T04:01:30;12.29;82.38
65864;SHT30;52639;51.180;20.460;2023-06-19T04:05:36;12.50;82.45
65864;SHT30;52639;51.180;20.460;2023-06-19T04:09:41;13.33;81.66
65864;SHT30;52639;51.180;20.460;2023-06-19T04:13:45;16.06;76.25
65864;SHT30;52639;51.180;20.460;2023-06-19T04:17:50;15.97;78.80
65864;SHT30;52639;51.180;20.460;2023-06-19T04:21:56;15.80;80.61
65864;SHT30;52639;51.180;20.460;2023-06-19T04:26:00;15.88;81.19
65864;SHT30;52639;51.180;20.460;2023-06-19T04:30:05;16.04;81.32
65864;SHT30;52639;51.180;20.460;2023-06-19T04:34:12;16.42;80.81
65864;SHT30;52639;51.180;20.460;2023-06-19T04:38:19;16.75;80.20
65864;SHT30;52639;51.180;20.460;2023-06-19T04:42:26;17.04;79.52
65864;SHT30;52639;51.180;20.460;2023-06-19T04:46:31;17.44;78.64
65864;SHT30;52639;51.180;20.460;2023-06-19T04:50:36;18.63;76.44
65864;SHT30;52639;51.180;20.460;2023-06-19T04:54:42;22.06;69.99
65864;SHT30;52639;51.180;20.460;2023-06-19T04:58:46;25.82;62.61
65864;SHT30;52639;51.180;20.460;2023-06-19T05:02:51;27.37;61.15
65864;SHT30;52639;51.180;20.460;2023-06-19T05:06:56;28.86;59.62
65864;SHT30;52639;51.180;20.460;2023-06-19T05:11:02;30.47;57.11
65864;SHT30;52639;51.180;20.460;2023-06-19T05:15:09;30.70;57.63
65864;SHT30;52639;51.180;20.460;2023-06-19T05:19:13;31.89;55.45
65864;SHT30;52639;51.180;20.460;2023-06-19T05:23:18;32.53;54.44
65864;SHT30;52639;51.180;20.460;2023-06-19T05:27:26;32.84;53.27
65864;SHT30;52639;51.180;20.460;2023-06-19T05:31:30;33.32;52.25
65864;SHT30;52639;51.180;20.460;2023-06-19T05:35:34;33.78;50.74
65864;SHT30;52639;51.180;20.460;2023-06-19T05:39:41;33.99;50.05
65864;SHT30;52639;51.180;20.460;2023-06-19T05:43:48;34.93;47.12
65864;SHT30;52639;51.180;20.460;2023-06-19T05:47:52;33.79;48.91
65864;SHT30;52639;51.180;20.460;2023-06-19T05:51:57;34.70;47.04
65864;SHT30;52639;51.180;20.460;2023-06-19T05:56:02;35.66;45.22
65864;SHT30;52639;51.180;20.460;2023-06-19T06:00:10;35.75;44.24
65864;SHT30;52639;51.180;20.460;2023-06-19T06:04:17;35.42;44.90
65864;SHT30;52639;51.180;20.460;2023-06-19T06:08:25;35.89;42.88
65864;SHT30;52639;51.180;20.460;2023-06-19T06:12:40;35.35;43.32
65864;SHT30;52639;51.180;20.460;2023-06-19T06:16:58;34.67;43.84
65864;SHT30;52639;51.180;20.460;2023-06-19T06:21:05;34.93;43.16
65864;SHT30;52639;51.180;20.460;2023-06-19T06:25:10;35.13;42.69
65864;SHT30;52639;51.180;20.460;2023-06-19T06:29:15;36.32;40.74
65864;SHT30;52639;51.180;20.460;2023-06-19T06:33:20;35.74;40.97
65864;SHT30;52639;51.180;20.460;2023-06-19T06:37:26;36.37;39.92
65864;SHT30;52639;51.180;20.460;2023-06-19T06:41:52;37.31;38.42
65864;SHT30;52639;51.180;20.460;2023-06-19T06:46:00;36.09;39.72
65864;SHT30;52639;51.180;20.460;2023-06-19T06:50:16;36.47;38.34
65864;SHT30;52639;51.180;20.460;2023-06-19T06:54:37;36.99;37.40
65864;SHT30;52639;51.180;20.460;2023-06-19T06:58:52;36.24;38.33
65864;SHT30;52639;51.180;20.460;2023-06-19T07:02:56;36.77;36.96
65864;SHT30;52639;51.180;20.460;2023-06-19T07:07:03;36.32;36.92
65864;SHT30;52639;51.180;20.460;2023-06-19T07:11:10;37.07;35.94
65864;SHT30;52639;51.180;20.460;2023-06-19T07:15:16;37.41;35.85
65864;SHT30;52639;51.180;20.460;2023-06-19T07:19:23;37.30;35.76
65864;SHT30;52639;51.180;20.460;2023-06-19T07:23:32;35.91;37.43
65864;SHT30;52639;51.180;20.460;2023-06-19T07:27:36;36.45;36.22
65864;SHT30;52639;51.180;20.460;2023-06-19T07:31:41;36.31;36.04
65864;SHT30;52639;51.180;20.460;2023-06-19T07:35:52;37.44;34.66
65864;SHT30;52639;51.180;20.460;2023-06-19T07:40:15;37.31;34.67
65864;SHT30;52639;51.180;20.460;2023-06-19T07:44:18;36.87;35.24
65864;SHT30;52639;51.180;20.460;2023-06-19T07:48:22;35.91;35.74
65864;SHT30;52639;51.180;20.460;2023-06-19T07:52:25;37.61;33.82
65864;SHT30;52639;51.180;20.460;2023-06-19T07:56:30;39.40;31.99
65864;SHT30;52639;51.180;20.460;2023-06-19T08:00:36;38.62;33.16
65864;SHT30;52639;51.180;20.460;2023-06-19T08:04:40;37.13;34.45
65864;SHT30;52639;51.180;20.460;2023-06-19T08:09:09;35.77;35.07
65864;SHT30;52639;51.180;20.460;2023-06-19T08:13:36;35.58;35.19
65864;SHT30;52639;51.180;20.460;2023-06-19T08:17:40;37.20;32.83
65864;SHT30;52639;51.180;20.460;2023-06-19T08:21:44;37.73;32.70
65864;SHT30;52639;51.180;20.460;2023-06-19T08:25:48;38.60;32.61
65864;SHT30;52639;51.180;20.460;2023-06-19T08:29:54;38.09;33.07
65864;SHT30;52639;51.180;20.460;2023-06-19T08:33:58;37.24;33.78
65864;SHT30;52639;51.180;20.460;2023-06-19T08:38:02;36.09;35.06
65864;SHT30;52639;51.180;20.460;2023-06-19T08:42:06;36.96;33.66
65864;SHT30;52639;51.180;20.460;2023-06-19T08:46:14;37.19;33.17
65864;SHT30;52639;51.180;20.460;2023-06-19T08:50:24;36.01;34.12
65864;SHT30;52639;51.180;20.460;2023-06-19T08:54:28;37.37;32.95
65864;SHT30;52639;51.180;20.460;2023-06-19T08:58:32;36.72;33.58
65864;SHT30;52639;51.180;20.460;2023-06-19T09:02:41;37.21;32.32
65864;SHT30;52639;51.180;20.460;2023-06-19T09:06:49;37.38;32.94
65864;SHT30;52639;51.180;20.460;2023-06-19T09:10:57;37.44;32.42
65864;SHT30;52639;51.180;20.460;2023-06-19T09:15:01;36.80;33.61
65864;SHT30;52639;51.180;20.460;2023-06-19T09:19:06;34.80;35.31
65864;SHT30;52639;51.180;20.460;2023-06-19T09:23:11;35.20;34.53
65864;SHT30;52639;51.180;20.460;2023-06-19T09:27:18;35.41;34.59
65864;SHT30;52639;51.180;20.460;2023-06-19T09:31:32;29.65;43.10
65864;SHT30;52639;51.180;20.460;2023-06-19T09:35:38;29.15;43.03
65864;SHT30;52639;51.180;20.460;2023-06-19T09:39:42;31.71;37.75
65864;SHT30;52639;51.180;20.460;2023-06-19T09:43:47;32.03;36.74
65864;SHT30;52639;51.180;20.460;2023-06-19T09:47:58;32.41;36.36
65864;SHT30;52639;51.180;20.460;2023-06-19T09:52:06;32.08;37.51
65864;SHT30;52639;51.180;20.460;2023-06-19T09:56:12;30.81;39.41
65864;SHT30;52639;51.180;20.460;2023-06-19T10:00:15;30.52;39.43
65864;SHT30;52639;51.180;20.460;2023-06-19T10:04:23;30.27;39.68
65864;SHT30;52639;51.180;20.460;2023-06-19T10:08:39;29.75;40.73
65864;SHT30;52639;51.180;20.460;2023-06-19T10:12:44;28.86;41.69
65864;SHT30;52639;51.180;20.460;2023-06-19T10:16:50;27.68;43.01
65864;SHT30;52639;51.180;20.460;2023-06-19T10:20:53;27.10;43.46
65864;SHT30;52639;51.180;20.460;2023-06-19T10:25:05;26.91;43.03
65864;SHT30;52639;51.180;20.460;2023-06-19T10:29:16;26.06;44.82
65864;SHT30;52639;51.180;20.460;2023-06-19T10:33:22;25.96;44.71
65864;SHT30;52639;51.180;20.460;2023-06-19T10:37:32;27.24;42.55
65864;SHT30;52639;51.180;20.460;2023-06-19T10:41:42;26.79;43.18
65864;SHT30;52639;51.180;20.460;2023-06-19T10:45:53;27.01;42.91
65864;SHT30;52639;51.180;20.460;2023-06-19T10:50:22;27.48;42.30
65864;SHT30;52639;51.180;20.460;2023-06-19T10:54:39;27.41;42.93
65864;SHT30;52639;51.180;20.460;2023-06-19T10:58:46;27.14;43.08
65864;SHT30;52639;51.180;20.460;2023-06-19T11:03:04;26.35;44.05
65864;SHT30;52639;51.180;20.460;2023-06-19T11:07:22;26.33;43.31
65864;SHT30;52639;51.180;20.460;2023-06-19T11:11:34;26.47;43.62
65864;SHT30;52639;51.180;20.460;2023-06-19T11:15:39;26.26;43.59
65864;SHT30;52639;51.180;20.460;2023-06-19T11:19:42;26.22;43.47
65864;SHT30;52639;51.180;20.460;2023-06-19T11:23:48;26.76;42.63
65864;SHT30;52639;51.180;20.460;2023-06-19T11:28:01;26.50;43.17
65864;SHT30;52639;51.180;20.460;2023-06-19T11:32:08;26.47;43.17
65864;SHT30;52639;51.180;20.460;2023-06-19T11:36:11;26.88;42.30
65864;SHT30;52639;51.180;20.460;2023-06-19T11:40:14;27.20;41.98
65864;SHT30;52639;51.180;20.460;2023-06-19T11:44:21;27.75;40.71
65864;SHT30;52639;51.180;20.460;2023-06-19T11:48:32;27.72;41.02
65864;SHT30;52639;51.180;20.460;2023-06-19T11:52:35;28.26;40.71
65864;SHT30;52639;51.180;20.460;2023-06-19T11:56:39;28.19;41.23
65864;SHT30;52639;51.180;20.460;2023-06-19T12:00:42;28.24;41.89
65864;SHT30;52639;51.180;20.460;2023-06-19T12:04:46;28.37;42.16
65864;SHT30;52639;51.180;20.460;2023-06-19T12:08:52;27.62;43.40
65864;SHT30;52639;51.180;20.460;2023-06-19T12:12:55;26.73;44.71
65864;SHT30;52639;51.180;20.460;2023-06-19T12:17:01;27.01;44.89
65864;SHT30;52639;51.180;20.460;2023-06-19T12:21:05;27.58;43.46
65864;SHT30;52639;51.180;20.460;2023-06-19T12:25:09;27.93;42.98
65864;SHT30;52639;51.180;20.460;2023-06-19T12:29:12;28.06;42.70
65864;SHT30;52639;51.180;20.460;2023-06-19T12:33:14;28.20;43.54
65864;SHT30;52639;51.180;20.460;2023-06-19T12:37:20;27.41;44.28
65864;SHT30;52639;51.180;20.460;2023-06-19T12:41:24;27.90;43.50
65864;SHT30;52639;51.180;20.460;2023-06-19T12:45:27;27.76;43.71
65864;SHT30;52639;51.180;20.460;2023-06-19T12:49:31;27.24;44.51
65864;SHT30;52639;51.180;20.460;2023-06-19T12:53:35;26.65;45.94
65864;SHT30;52639;51.180;20.460;2023-06-19T12:57:38;26.73;45.79
65864;SHT30;52639;51.180;20.460;2023-06-19T13:01:42;26.80;44.79
65864;SHT30;52639;51.180;20.460;2023-06-19T13:05:46;26.43;45.25
65864;SHT30;52639;51.180;20.460;2023-06-19T13:09:50;26.19;46.14
65864;SHT30;52639;51.180;20.460;2023-06-19T13:13:53;26.13;46.23
65864;SHT30;52639;51.180;20.460;2023-06-19T13:17:59;26.30;45.54
65864;SHT30;52639;51.180;20.460;2023-06-19T13:22:02;25.74;46.22
65864;SHT30;52639;51.180;20.460;2023-06-19T13:26:07;25.21;47.09
65864;SHT30;52639;51.180;20.460;2023-06-19T13:30:11;24.92;47.63
65864;SHT30;52639;51.180;20.460;2023-06-19T13:34:15;24.80;47.57
65864;SHT30;52639;51.180;20.460;2023-06-19T13:38:20;24.77;47.83
65864;SHT30;52639;51.180;20.460;2023-06-19T13:42:25;25.06;47.85
65864;SHT30;52639;51.180;20.460;2023-06-19T13:46:28;25.41;47.21
65864;SHT30;52639;51.180;20.460;2023-06-19T13:50:33;25.44;47.03
65864;SHT30;52639;51.180;20.460;2023-06-19T13:54:37;25.37;47.20
65864;SHT30;52639;51.180;20.460;2023-06-19T13:58:42;25.39;47.27
65864;SHT30;52639;51.180;20.460;2023-06-19T14:02:45;25.22;47.32
65864;SHT30;52639;51.180;20.460;2023-06-19T14:06:50;25.27;47.35
65864;SHT30;52639;51.180;20.460;2023-06-19T14:10:54;25.12;47.84
65864;SHT30;52639;51.180;20.460;2023-06-19T14:15:12;25.42;47.21
65864;SHT30;52639;51.180;20.460;2023-06-19T14:19:18;25.48;46.73
65864;SHT30;52639;51.180;20.460;2023-06-19T14:23:23;25.88;46.28
65864;SHT30;52639;51.180;20.460;2023-06-19T14:27:26;25.99;46.17
65864;SHT30;52639;51.180;20.460;2023-06-19T14:31:41;25.84;46.41
65864;SHT30;52639;51.180;20.460;2023-06-19T14:35:45;25.55;47.04
65864;SHT30;52639;51.180;20.460;2023-06-19T14:39:50;25.48;47.11
65864;SHT30;52639;51.180;20.460;2023-06-19T14:43:54;25.45;47.24
65864;SHT30;52639;51.180;20.460;2023-06-19T14:47:59;25.55;47.05
65864;SHT30;52639;51.180;20.460;2023-06-19T14:52:02;25.85;46.56
65864;SHT30;52639;51.180;20.460;2023-06-19T14:56:05;26.35;45.97
65864;SHT30;52639;51.180;20.460;2023-06-19T15:00:09;26.35;46.69
65864;SHT30;52639;51.180;20.460;2023-06-19T15:04:14;25.88;47.64
65864;SHT30;52639;51.180;20.460;2023-06-19T15:08:17;25.71;47.43
65864;SHT30;52639;51.180;20.460;2023-06-19T15:12:23;25.74;47.08
65864;SHT30;52639;51.180;20.460;2023-06-19T15:16:26;25.78;46.50
65864;SHT30;52639;51.180;20.460;2023-06-19T15:20:35;26.05;45.84
65864;SHT30;52639;51.180;20.460;2023-06-19T15:24:40;26.53;44.93
65864;SHT30;52639;51.180;20.460;2023-06-19T15:28:43;26.30;45.55
65864;SHT30;52639;51.180;20.460;2023-06-19T15:32:46;26.32;45.74
65864;SHT30;52639;51.180;20.460;2023-06-19T15:36:50;26.37;45.95
65864;SHT30;52639;51.180;20.460;2023-06-19T15:40:53;26.35;45.59
65864;SHT30;52639;51.180;20.460;2023-06-19T15:44:56;26.09;45.97
65864;SHT30;52639;51.180;20.460;2023-06-19T15:48:59;25.74;46.60
65864;SHT30;52639;51.180;20.460;2023-06-19T15:53:04;25.58;46.48
65864;SHT30;52639;51.180;20.460;2023-06-19T15:57:08;25.39;46.63
65864;SHT30;52639;51.180;20.460;2023-06-19T16:01:13;24.98;48.05
65864;SHT30;52639;51.180;20.460;2023-06-19T16:05:17;24.92;48.00
65864;SHT30;52639;51.180;20.460;2023-06-19T16:09:22;24.87;48.07
65864;SHT30;52639;51.180;20.460;2023-06-19T16:13:26;24.63;48.45
65864;SHT30;52639;51.180;20.460;2023-06-19T16:17:29;24.41;48.87
65864;SHT30;52639;51.180;20.460;2023-06-19T16:21:32;24.30;49.35
65864;SHT30;52639;51.180;20.460;2023-06-19T16:25:39;24.26;49.07
65864;SHT30;52639;51.180;20.460;2023-06-19T16:29:43;24.12;49.03
65864;SHT30;52639;51.180;20.460;2023-06-19T16:33:49;23.83;49.32
65864;SHT30;52639;51.180;20.460;2023-06-19T16:38:01;23.76;49.38
65864;SHT30;52639;51.180;20.460;2023-06-19T16:42:09;23.81;49.35
65864;SHT30;52639;51.180;20.460;2023-06-19T16:46:12;23.90;48.69
65864;SHT30;52639;51.180;20.460;2023-06-19T16:50:16;23.90;48.57
65864;SHT30;52639;51.180;20.460;2023-06-19T16:54:19;23.90;48.40
65864;SHT30;52639;51.180;20.460;2023-06-19T16:58:23;23.54;49.46
65864;SHT30;52639;51.180;20.460;2023-06-19T17:02:26;23.45;49.34
65864;SHT30;52639;51.180;20.460;2023-06-19T17:06:29;23.55;48.97
65864;SHT30;52639;51.180;20.460;2023-06-19T17:10:32;23.55;48.90
65864;SHT30;52639;51.180;20.460;2023-06-19T17:14:37;23.48;49.26
65864;SHT30;52639;51.180;20.460;2023-06-19T17:18:40;23.42;49.17
65864;SHT30;52639;51.180;20.460;2023-06-19T17:22:44;23.04;50.27
65864;SHT30;52639;51.180;20.460;2023-06-19T17:26:47;22.71;51.54
65864;SHT30;52639;51.180;20.460;2023-06-19T17:30:54;22.32;52.95
65864;SHT30;52639;51.180;20.460;2023-06-19T17:34:57;21.78;54.61
65864;SHT30;52639;51.180;20.460;2023-06-19T17:39:01;21.37;55.97
65864;SHT30;52639;51.180;20.460;2023-06-19T17:43:04;21.12;56.58
65864;SHT30;52639;51.180;20.460;2023-06-19T17:47:09;21.03;56.94
65864;SHT30;52639;51.180;20.460;2023-06-19T17:51:14;20.79;57.49
65864;SHT30;52639;51.180;20.460;2023-06-19T17:55:17;20.77;57.91
65864;SHT30;52639;51.180;20.460;2023-06-19T17:59:20;21.05;58.40
65864;SHT30;52639;51.180;20.460;2023-06-19T18:03:25;20.63;60.13
65864;SHT30;52639;51.180;20.460;2023-06-19T18:07:30;20.22;61.58
65864;SHT30;52639;51.180;20.460;2023-06-19T18:11:33;19.90;62.88
65864;SHT30;52639;51.180;20.460;2023-06-19T18:15:37;19.68;63.74
65864;SHT30;52639;51.180;20.460;2023-06-19T18:19:41;19.37;64.41
65864;SHT30;52639;51.180;20.460;2023-06-19T18:23:48;19.18;65.12
65864;SHT30;52639;51.180;20.460;2023-06-19T18:27:52;19.11;65.32
65864;SHT30;52639;51.180;20.460;2023-06-19T18:31:55;18.67;66.52
65864;SHT30;52639;51.180;20.460;2023-06-19T18:36:02;18.60;66.73
65864;SHT30;52639;51.180;20.460;2023-06-19T18:40:07;18.96;66.04
65864;SHT30;52639;51.180;20.460;2023-06-19T18:44:10;18.80;66.76
65864;SHT30;52639;51.180;20.460;2023-06-19T18:48:13;18.48;67.45
65864;SHT30;52639;51.180;20.460;2023-06-19T18:52:18;17.89;69.24
65864;SHT30;52639;51.180;20.460;2023-06-19T18:56:21;17.62;69.93
65864;SHT30;52639;51.180;20.460;2023-06-19T19:00:25;17.42;70.39
65864;SHT30;52639;51.180;20.460;2023-06-19T19:04:31;17.09;71.01
65864;SHT30;52639;51.180;20.460;2023-06-19T19:08:35;17.02;71.08
65864;SHT30;52639;51.180;20.460;2023-06-19T19:12:39;16.79;71.38
65864;SHT30;52639;51.180;20.460;2023-06-19T19:16:42;16.69;71.72
65864;SHT30;52639;51.180;20.460;2023-06-19T19:20:54;16.49;72.45
65864;SHT30;52639;51.180;20.460;2023-06-19T19:25:01;16.36;72.81
65864;SHT30;52639;51.180;20.460;2023-06-19T19:29:05;16.21;72.88
65864;SHT30;52639;51.180;20.460;2023-06-19T19:33:08;16.19;73.02
65864;SHT30;52639;51.180;20.460;2023-06-19T19:37:15;16.13;73.44
65864;SHT30;52639;51.180;20.460;2023-06-19T19:41:27;16.16;73.37
65864;SHT30;52639;51.180;20.460;2023-06-19T19:45:30;15.95;73.82
65864;SHT30;52639;51.180;20.460;2023-06-19T19:49:35;15.64;74.71
65864;SHT30;52639;51.180;20.460;2023-06-19T19:53:39;15.50;75.06
65864;SHT30;52639;51.180;20.460;2023-06-19T19:58:00;15.43;75.30
65864;SHT30;52639;51.180;20.460;2023-06-19T20:02:22;15.20;75.70
65864;SHT30;52639;51.180;20.460;2023-06-19T20:06:54;15.31;75.30
65864;SHT30;52639;51.180;20.460;2023-06-19T20:10:58;15.24;75.60
65864;SHT30;52639;51.180;20.460;2023-06-19T20:15:11;15.03;76.36
65864;SHT30;52639;51.180;20.460;2023-06-19T20:19:15;14.96;76.47
65864;SHT30;52639;51.180;20.460;2023-06-19T20:23:20;14.93;76.42
65864;SHT30;52639;51.180;20.460;2023-06-19T20:27:27;14.93;76.60
65864;SHT30;52639;51.180;20.460;2023-06-19T20:31:35;14.71;77.00
65864;SHT30;52639;51.180;20.460;2023-06-19T20:35:40;14.52;77.56
65864;SHT30;52639;51.180;20.460;2023-06-19T20:39:53;14.38;77.76
65864;SHT30;52639;51.180;20.460;2023-06-19T20:43:59;14.32;78.06
65864;SHT30;52639;51.180;20.460;2023-06-19T20:48:11;14.33;78.17
65864;SHT30;52639;51.180;20.460;2023-06-19T20:52:18;14.19;78.30
65864;SHT30;52639;51.180;20.460;2023-06-19T20:56:39;14.26;78.17
65864;SHT30;52639;51.180;20.460;2023-06-19T21:00:47;14.21;78.29
65864;SHT30;52639;51.180;20.460;2023-06-19T21:04:56;14.11;78.55
65864;SHT30;52639;51.180;20.460;2023-06-19T21:08:59;14.12;78.45
65864;SHT30;52639;51.180;20.460;2023-06-19T21:13:05;14.19;78.43
65864;SHT30;52639;51.180;20.460;2023-06-19T21:17:08;14.15;78.64
65864;SHT30;52639;51.180;20.460;2023-06-19T21:21:13;14.11;78.87
65864;SHT30;52639;51.180;20.460;2023-06-19T21:25:16;13.87;79.50
65864;SHT30;52639;51.180;20.460;2023-06-19T21:29:23;13.79;79.94
65864;SHT30;52639;51.180;20.460;2023-06-19T21:33:25;13.75;79.90
65864;SHT30;52639;51.180;20.460;2023-06-19T21:37:35;13.64;79.98
65864;SHT30;52639;51.180;20.460;2023-06-19T21:41:38;13.60;80.14
65864;SHT30;52639;51.180;20.460;2023-06-19T21:45:41;13.68;79.87
65864;SHT30;52639;51.180;20.460;2023-06-19T21:49:44;13.58;80.12
65864;SHT30;52639;51.180;20.460;2023-06-19T21:53:48;13.50;80.36
65864;SHT30;52639;51.180;20.460;2023-06-19T21:57:52;13.46;80.60
65864;SHT30;52639;51.180;20.460;2023-06-19T22:01:56;13.42;80.56
65864;SHT30;52639;51.180;20.460;2023-06-19T22:06:02;13.47;80.49
65864;SHT30;52639;51.180;20.460;2023-06-19T22:10:10;13.37;80.67
65864;SHT30;52639;51.180;20.460;2023-06-19T22:14:14;13.22;81.01
65864;SHT30;52639;51.180;20.460;2023-06-19T22:18:17;13.14;81.37
65864;SHT30;52639;51.180;20.460;2023-06-19T22:22:20;13.09;81.57
65864;SHT30;52639;51.180;20.460;2023-06-19T22:26:25;13.06;81.57
65864;SHT30;52639;51.180;20.460;2023-06-19T22:30:28;13.09;81.57
65864;SHT30;52639;51.180;20.460;2023-06-19T22:34:33;13.07;81.44
65864;SHT30;52639;51.180;20.460;2023-06-19T22:38:37;13.00;81.58
65864;SHT30;52639;51.180;20.460;2023-06-19T22:42:47;12.97;81.69
65864;SHT30;52639;51.180;20.460;2023-06-19T22:46:51;13.06;81.76
65864;SHT30;52639;51.180;20.460;2023-06-19T22:50:58;13.09;81.68
65864;SHT30;52639;51.180;20.460;2023-06-19T22:55:03;12.95;81.77
65864;SHT30;52639;51.180;20.460;2023-06-19T22:59:07;12.86;82.00
65864;SHT30;52639;51.180;20.460;2023-06-19T23:03:13;12.80;82.22
65864;SHT30;52639;51.180;20.460;2023-06-19T23:07:20;12.58;82.56
65864;SHT30;52639;51.180;20.460;2023-06-19T23:11:23;12.55;82.69
65864;SHT30;52639;51.180;20.460;2023-06-19T23:15:31;12.60;82.41
65864;SHT30;52639;51.180;20.460;2023-06-19T23:19:36;12.58;82.46
65864;SHT30;52639;51.180;20.460;2023-06-19T23:23:47;12.50;82.73
65864;SHT30;52639;51.180;20.460;2023-06-19T23:27:50;12.46;82.66
65864;SHT30;52639;51.180;20.460;2023-06-19T23:31:57;12.34;82.94
65864;SHT30;52639;51.180;20.460;2023-06-19T23:36:02;12.29;83.00
65864;SHT30;52639;51.180;20.460;2023-06-19T23:40:09;12.32;83.09
65864;SHT30;52639;51.180;20.460;2023-06-19T23:44:18;12.42;82.93
65864;SHT30;52639;51.180;20.460;2023-06-19T23:48:25;12.45;82.80
65864;SHT30;52639;51.180;20.460;2023-06-19T23:52:31;12.49;82.85
65864;SHT30;52639;51.180;20.460;2023-06-19T23:56:38;12.56;82.73
